createdAt,value
2023-03-17T00:01:13.015Z,99943.41
2023-03-17T00:06:29.873Z,99953.41
2023-03-17T00:11:31.385Z,99959.00
2023-03-17T00:16:37.454Z,99955.88
2023-03-17T00:21:42.406Z,99947.16
2023-03-17T00:26:44.405Z,99943.34
2023-03-17T00:31:49.354Z,99952.03
2023-03-17T00:36:51.535Z,99939.63
2023-03-17T00:41:53.349Z,99944.63
2023-03-17T00:46:55.015Z,99948.47
2023-03-17T00:51:56.632Z,99955.63
2023-03-17T00:56:58.446Z,99948.91
2023-03-17T01:02:00.343Z,99935.91
2023-03-17T01:07:04.959Z,99940.84
2023-03-17T01:12:07.946Z,99939.47
2023-03-17T01:17:16.687Z,99919.81
2023-03-17T01:22:18.287Z,99904.84
2023-03-17T01:27:19.844Z,99905.22
2023-03-17T01:32:24.356Z,99900.22
2023-03-17T01:37:27.000Z,99895.31
2023-03-17T01:42:29.283Z,99879.84
2023-03-17T01:47:31.943Z,99874.63
2023-03-17T01:52:36.648Z,99873.72
2023-03-17T01:57:53.516Z,99884.03
2023-03-17T02:02:56.575Z,99879.97
2023-03-17T02:07:58.679Z,99881.38
2023-03-17T02:13:05.811Z,99888.88
2023-03-17T02:18:09.444Z,99885.50
2023-03-17T02:23:11.776Z,99892.31
2023-03-17T02:28:23.463Z,99887.16
2023-03-17T02:33:25.304Z,99881.94
2023-03-17T02:38:29.664Z,99882.06
2023-03-17T02:43:34.354Z,99870.06
2023-03-17T02:48:36.746Z,99852.19
2023-03-17T02:53:38.281Z,99859.50
2023-03-17T02:58:39.768Z,99854.47
2023-03-17T03:03:41.372Z,99853.47
2023-03-17T03:08:42.959Z,99850.47
2023-03-17T03:13:44.919Z,99856.72
2023-03-17T03:18:46.474Z,99861.91
2023-03-17T03:23:48.124Z,99861.44
2023-03-17T03:28:51.177Z,99846.84
2023-03-17T03:33:52.867Z,99852.28
2023-03-17T03:38:54.391Z,99858.50
2023-03-17T03:43:56.040Z,99862.19
2023-03-17T03:48:57.528Z,99873.59
2023-03-17T03:53:59.096Z,99864.63
2023-03-17T03:59:01.171Z,99861.53
2023-03-17T04:04:02.698Z,99868.00
2023-03-17T04:09:04.342Z,99866.75
2023-03-17T04:14:06.459Z,99872.53
2023-03-17T04:19:09.045Z,99873.25
2023-03-17T04:24:10.632Z,99867.53
2023-03-17T04:29:15.607Z,99866.38
2023-03-17T04:34:18.712Z,99856.81
2023-03-17T04:39:20.224Z,99855.66
2023-03-17T04:44:21.779Z,99848.75
2023-03-17T04:49:23.353Z,99851.00
2023-03-17T04:54:25.190Z,99863.00
2023-03-17T04:59:27.331Z,99868.19
2023-03-17T05:04:31.991Z,99872.19
2023-03-17T05:09:34.033Z,99870.00
2023-03-17T05:14:36.263Z,99876.06
2023-03-17T05:19:37.762Z,99869.00
2023-03-17T05:24:39.239Z,99860.25
2023-03-17T05:29:40.795Z,99866.34
2023-03-17T05:34:42.395Z,99895.16
2023-03-17T05:39:43.926Z,99898.38
2023-03-17T05:44:45.413Z,99903.41
2023-03-17T05:49:46.911Z,99912.16
2023-03-17T05:54:49.072Z,99918.22
2023-03-17T05:59:54.383Z,99911.81
2023-03-17T06:04:55.884Z,99913.66
2023-03-17T06:09:57.397Z,99909.38
2023-03-17T06:14:58.922Z,99902.09
2023-03-17T06:20:00.420Z,99894.16
2023-03-17T06:25:02.020Z,99905.19
2023-03-17T06:30:05.819Z,99916.56
2023-03-17T06:35:07.705Z,99921.44
2023-03-17T06:40:10.182Z,99917.09
2023-03-17T06:45:12.394Z,99913.34
2023-03-17T06:50:14.096Z,99927.19
2023-03-17T06:55:15.860Z,99930.69
2023-03-17T07:00:18.063Z,99929.50
2023-03-17T07:05:19.622Z,99916.03
2023-03-17T07:10:23.124Z,99915.91
2023-03-17T07:15:24.746Z,99914.03
2023-03-17T07:20:26.491Z,99905.50
2023-03-17T07:25:28.306Z,99897.25
2023-03-17T07:30:29.886Z,99896.31
2023-03-17T07:35:33.714Z,99908.53
2023-03-17T07:40:36.469Z,99907.91
2023-03-17T07:45:38.192Z,99915.81
2023-03-17T07:50:40.149Z,99905.13
2023-03-17T07:55:42.567Z,99867.84
2023-03-17T08:00:48.959Z,99876.97
2023-03-17T08:05:58.001Z,99862.63
2023-03-17T08:11:04.841Z,99855.25
2023-03-17T08:16:07.362Z,99839.78
2023-03-17T08:21:09.707Z,99848.91
2023-03-17T08:26:11.375Z,99856.66
2023-03-17T08:31:21.596Z,99857.19
2023-03-17T08:36:24.136Z,99847.69
2023-03-17T08:41:28.148Z,99835.50
2023-03-17T08:46:32.517Z,99823.50
2023-03-17T08:51:36.770Z,99820.91
2023-03-17T08:56:40.164Z,99803.34
2023-03-17T09:01:42.075Z,99787.00
2023-03-17T09:07:01.371Z,99788.31
2023-03-17T09:12:06.341Z,99772.63
2023-03-17T09:17:08.508Z,99783.25
2023-03-17T09:22:15.230Z,99758.47
2023-03-17T09:27:16.821Z,99736.06
2023-03-17T09:32:21.117Z,99737.47
2023-03-17T09:37:22.657Z,99700.69
2023-03-17T09:42:40.583Z,99700.69
2023-03-17T09:48:17.317Z,99666.81
2023-03-17T09:53:22.997Z,99679.31
2023-03-17T09:58:35.859Z,99678.47
2023-03-17T10:03:37.569Z,99724.72
2023-03-17T10:08:45.173Z,99718.78
2023-03-17T10:13:57.819Z,99716.09
2023-03-17T10:19:07.163Z,99710.56
2023-03-17T10:24:10.757Z,99704.78
2023-03-17T10:29:18.819Z,99682.66
2023-03-17T10:34:32.695Z,99676.44
2023-03-17T10:39:47.060Z,99673.75
2023-03-17T10:44:53.963Z,99665.53
2023-03-17T10:49:57.968Z,99632.38
2023-03-17T10:55:05.568Z,99632.13
2023-03-17T11:00:20.192Z,99639.03
2023-03-17T11:05:24.821Z,99641.50
2023-03-17T11:10:29.229Z,99659.09
2023-03-17T11:15:37.849Z,99622.53
2023-03-17T11:21:06.724Z,99631.63
2023-03-17T11:26:21.287Z,99638.28
2023-03-17T11:31:27.423Z,99618.78
2023-03-17T11:36:57.826Z,99601.72
2023-03-17T11:42:29.181Z,99610.22
2023-03-17T11:47:52.267Z,99608.94
2023-03-17T11:53:12.211Z,99594.44
2023-03-17T11:58:24.964Z,99586.22
2023-03-17T12:03:45.962Z,99579.84
2023-03-17T12:09:01.899Z,99582.38
2023-03-17T12:14:30.318Z,99571.72
2023-03-17T12:19:51.114Z,99556.25
2023-03-17T12:25:25.577Z,99545.22
2023-03-17T12:30:54.406Z,99547.44
2023-03-17T12:36:45.778Z,99541.44
2023-03-17T12:42:08.895Z,99519.44
2023-03-17T12:47:13.134Z,99524.38
2023-03-17T12:52:26.692Z,99518.97
2023-03-17T12:57:31.011Z,99499.59
2023-03-17T13:02:38.017Z,99492.00
2023-03-17T13:07:51.144Z,99488.06
2023-03-17T13:13:05.781Z,99492.13
2023-03-17T13:18:23.477Z,99466.63
2023-03-17T13:23:44.323Z,99479.16
2023-03-17T13:28:49.180Z,99487.16
2023-03-17T13:33:56.871Z,99471.00
2023-03-17T13:39:36.480Z,99485.25
2023-03-17T13:44:56.949Z,99487.38
2023-03-17T13:50:06.456Z,99471.31
2023-03-17T13:55:20.473Z,99505.78
2023-03-17T14:00:26.668Z,99500.84
2023-03-17T14:05:31.322Z,99508.03
2023-03-17T14:10:33.969Z,99498.88
2023-03-17T14:15:48.495Z,99511.44
2023-03-17T14:21:02.046Z,99528.59
2023-03-17T14:26:03.993Z,99530.75
2023-03-17T14:31:07.511Z,99528.28
2023-03-17T14:36:14.258Z,99522.75
2023-03-17T14:41:18.188Z,99526.44
2023-03-17T14:46:30.656Z,99508.66
2023-03-17T14:51:37.885Z,99522.13
2023-03-17T14:57:00.027Z,99517.94
2023-03-17T15:02:15.788Z,99524.94
2023-03-17T15:07:35.837Z,99516.44
2023-03-17T15:12:37.468Z,99524.25
2023-03-17T15:17:39.044Z,99527.50
2023-03-17T15:22:55.630Z,99515.97
2023-03-17T15:27:57.732Z,99516.97
2023-03-17T15:33:03.099Z,99523.16
2023-03-17T15:38:05.923Z,99536.28
2023-03-17T15:43:07.439Z,99522.19
2023-03-17T15:48:29.787Z,99528.34
2023-03-17T15:53:33.681Z,99532.41
2023-03-17T15:58:35.189Z,99536.47
2023-03-17T16:03:41.229Z,99526.34
2023-03-17T16:08:42.898Z,99528.06
2023-03-17T16:13:45.155Z,99532.25
2023-03-17T16:18:47.596Z,99533.22
2023-03-17T16:23:49.756Z,99530.25
2023-03-17T16:28:51.419Z,99522.06
2023-03-17T16:33:54.165Z,99524.31
2023-03-17T16:38:55.769Z,99530.22
2023-03-17T16:44:02.047Z,99533.88
2023-03-17T16:49:04.909Z,99543.88
2023-03-17T16:54:06.418Z,99558.78
2023-03-17T16:59:14.872Z,99582.19
2023-03-17T17:04:16.365Z,99591.59
2023-03-17T17:09:18.066Z,99604.50
2023-03-17T17:14:19.545Z,99612.13
2023-03-17T17:19:21.942Z,99624.16
2023-03-17T17:24:23.478Z,99630.44
2023-03-17T17:29:24.959Z,99641.84
2023-03-17T17:34:26.458Z,99656.75
2023-03-17T17:39:27.994Z,99653.84
2023-03-17T17:44:30.959Z,99664.63
2023-03-17T17:49:32.591Z,99667.53
2023-03-17T17:54:34.100Z,99664.38
2023-03-17T17:59:37.804Z,99671.41
2023-03-17T18:04:39.768Z,99680.75
2023-03-17T18:09:41.307Z,99684.75
2023-03-17T18:14:42.786Z,99693.38
2023-03-17T18:19:44.285Z,99694.81
2023-03-17T18:24:46.497Z,99685.50
2023-03-17T18:29:48.469Z,99697.81
2023-03-17T18:34:50.292Z,99705.09
2023-03-17T18:40:11.654Z,99696.38
2023-03-17T18:45:14.007Z,99698.56
2023-03-17T18:50:17.512Z,99702.97
2023-03-17T18:55:19.042Z,99704.09
2023-03-17T19:00:21.151Z,99699.13
2023-03-17T19:05:22.968Z,99699.53
2023-03-17T19:10:24.464Z,99701.44
2023-03-17T19:15:26.644Z,99707.22
2023-03-17T19:20:28.258Z,99706.75
2023-03-17T19:25:29.932Z,99704.53
2023-03-17T19:30:31.737Z,99711.47
2023-03-17T19:35:33.501Z,99706.06
2023-03-17T19:40:37.017Z,99701.53
2023-03-17T19:45:38.536Z,99707.84
2023-03-17T19:50:40.739Z,99700.09
2023-03-17T19:55:43.553Z,99708.34
2023-03-17T20:00:45.237Z,99700.03
2023-03-17T20:05:46.745Z,99720.50
2023-03-17T20:10:53.801Z,99709.09
2023-03-17T20:15:55.480Z,99706.38
2023-03-17T20:20:58.639Z,99705.56
2023-03-17T20:26:01.307Z,99709.09
2023-03-17T20:31:04.539Z,99707.69
2023-03-17T20:36:06.660Z,99707.69
2023-03-17T20:41:13.678Z,99696.75
2023-03-17T20:46:18.105Z,99692.81
2023-03-17T20:51:19.948Z,99689.25
2023-03-17T20:56:24.207Z,99693.75
2023-03-17T21:01:26.648Z,99702.91
2023-03-17T21:06:31.386Z,99707.91
2023-03-17T21:11:33.539Z,99703.16
2023-03-17T21:16:36.376Z,99724.66
2023-03-17T21:21:40.097Z,99744.59
2023-03-17T21:26:41.621Z,99744.78
2023-03-17T21:31:43.134Z,99739.88
2023-03-17T21:36:44.887Z,99744.00
2023-03-17T21:41:49.151Z,99753.72
2023-03-17T21:46:50.930Z,99758.31
2023-03-17T21:51:52.717Z,99758.47
2023-03-17T21:56:54.230Z,99751.09
2023-03-17T22:01:55.723Z,99760.59
2023-03-17T22:06:58.835Z,99757.09
2023-03-17T22:12:00.430Z,99758.59
2023-03-17T22:17:05.268Z,99762.50
2023-03-17T22:22:06.813Z,99768.34
2023-03-17T22:27:08.416Z,99770.75
2023-03-17T22:32:10.523Z,99759.25
2023-03-17T22:37:12.063Z,99768.50
2023-03-17T22:42:13.728Z,99770.38
2023-03-17T22:47:15.217Z,99771.25
2023-03-17T22:52:16.727Z,99779.44
2023-03-17T22:57:18.206Z,99789.03
2023-03-17T23:02:19.870Z,99797.16
2023-03-17T23:07:21.372Z,99793.38
2023-03-17T23:12:24.497Z,99794.28
2023-03-17T23:17:26.623Z,99797.69
2023-03-17T23:22:28.257Z,99807.00
2023-03-17T23:27:29.964Z,99811.97
2023-03-17T23:32:31.906Z,99820.84
2023-03-17T23:37:33.496Z,99828.44
2023-03-17T23:42:35.637Z,99827.81
2023-03-17T23:47:38.240Z,99830.78
2023-03-17T23:52:40.948Z,99833.94
2023-03-17T23:57:44.204Z,99835.03
